Time;durP1;ratioP1;P1;durP2;ratioP2;P2;SDS_P1;SDS_P2;PMS_P1;PMS_P2;Temp;Humidity;BMP_temperature;BMP_pressure;BME280_temperature;BME280_humidity;BME280_pressure;Samples;Min_cycle;Max_cycle;Signal;HPM_P1;HPM_P2
2023/09/15 00:01:44;;;;;;;3.65;1.45;;;26.30;61.10;;;;;;6244090;23;20559;-83
2023/09/15 00:04:13;;;;;;;0.73;0.70;;;26.30;61.30;;;;;;6244209;23;20209;-84
2023/09/15 00:06:46;;;;;;;1.08;0.98;;;26.30;61.50;;;;;;6243906;23;20220;-84
2023/09/15 00:09:15;;;;;;;0.85;0.85;;;26.20;61.80;;;;;;6243701;23;20262;-83
2023/09/15 00:11:47;;;;;;;0.80;0.80;;;26.20;62.20;;;;;;6247662;23;20166;-85
2023/09/15 00:14:18;;;;;;;1.05;1.00;;;26.20;62.00;;;;;;6245248;23;20159;-83
2023/09/15 00:16:47;;;;;;;1.95;1.33;;;26.20;62.00;;;;;;6244284;23;20190;-82
2023/09/15 00:19:16;;;;;;;1.95;1.38;;;26.10;62.30;;;;;;6244540;23;20177;-82
2023/09/15 00:21:48;;;;;;;0.70;0.70;;;26.10;62.80;;;;;;6243198;23;20204;-84
2023/09/15 00:24:16;;;;;;;2.13;1.27;;;26.10;62.70;;;;;;6243843;23;20233;-84
2023/09/15 00:26:45;;;;;;;2.72;1.42;;;26.10;62.90;;;;;;6244109;23;20198;-83
2023/09/15 00:29:15;;;;;;;1.42;1.25;;;26.00;63.40;;;;;;6242595;23;20201;-83
2023/09/15 00:31:45;;;;;;;2.47;1.55;;;26.00;63.30;;;;;;6240974;23;20161;-84
2023/09/15 00:34:15;;;;;;;1.45;0.77;;;26.00;63.10;;;;;;6243690;23;20503;-83
2023/09/15 00:36:45;;;;;;;2.70;1.25;;;26.00;63.20;;;;;;6242890;23;20166;-85
2023/09/15 00:39:14;;;;;;;0.50;0.50;;;26.00;63.10;;;;;;6243307;23;20531;-82
2023/09/15 00:41:43;;;;;;;2.55;1.50;;;26.00;63.00;;;;;;6242354;23;20170;-85
2023/09/15 00:44:12;;;;;;;0.88;0.85;;;26.00;63.10;;;;;;6243218;23;20170;-83
2023/09/15 00:46:41;;;;;;;1.10;1.00;;;25.90;63.10;;;;;;6242801;23;20272;-84
2023/09/15 00:49:11;;;;;;;1.83;0.70;;;25.90;63.30;;;;;;6243731;23;20246;-82
2023/09/15 00:51:41;;;;;;;5.05;1.67;;;25.90;63.30;;;;;;6243671;23;20167;-84
2023/09/15 00:54:11;;;;;;;1.50;1.23;;;25.90;63.30;;;;;;6242399;23;20170;-83
2023/09/15 00:56:40;;;;;;;3.00;1.63;;;25.90;63.40;;;;;;6241499;23;20186;-84
2023/09/15 00:59:10;;;;;;;1.50;1.23;;;25.90;63.30;;;;;;6241770;23;20185;-85
2023/09/15 01:01:39;;;;;;;1.67;1.27;;;25.90;63.60;;;;;;6242775;23;20166;-85
2023/09/15 01:04:09;;;;;;;2.10;0.98;;;25.80;63.60;;;;;;6241852;23;20177;-84
2023/09/15 01:06:42;;;;;;;1.08;0.98;;;25.80;63.30;;;;;;6242357;23;20560;-86
2023/09/15 01:09:12;;;;;;;1.10;1.00;;;25.90;63.30;;;;;;6244088;23;20163;-83
2023/09/15 01:11:41;;;;;;;0.45;0.45;;;25.80;63.00;;;;;;6243130;23;20179;-84
2023/09/15 01:14:09;;;;;;;2.17;1.95;;;25.80;62.80;;;;;;6243836;23;20166;-83
2023/09/15 01:16:47;;;;;;;2.88;1.55;;;25.80;63.30;;;;;;6242941;23;20201;-84
2023/09/15 01:19:42;;;;;;;2.72;2.15;;;25.80;63.40;;;;;;6243548;23;20159;-84
2023/09/15 01:22:35;;;;;;;2.33;1.38;;;25.80;63.50;;;;;;6243268;23;20190;-85
2023/09/15 01:25:29;;;;;;;1.58;1.23;;;25.80;63.70;;;;;;6243723;23;20151;-84
2023/09/15 01:28:22;;;;;;;2.28;0.90;;;25.80;63.70;;;;;;6241032;23;20182;-85
2023/09/15 01:30:53;;;;;;;0.82;0.68;;;25.80;63.60;;;;;;6236693;23;20578;-83
2023/09/15 01:33:24;;;;;;;2.05;0.95;;;25.80;63.80;;;;;;6239773;23;20225;-84
2023/09/15 01:35:52;;;;;;;1.70;1.20;;;25.80;64.00;;;;;;6242947;23;20170;-86
2023/09/15 01:38:21;;;;;;;0.60;0.60;;;25.70;63.80;;;;;;6238962;23;20170;-86
2023/09/15 01:40:52;;;;;;;0.93;0.82;;;25.80;63.90;;;;;;6239787;23;20171;-85
2023/09/15 01:43:20;;;;;;;2.42;2.15;;;25.80;64.30;;;;;;6241558;23;20242;-86
2023/09/15 01:45:49;;;;;;;2.58;1.50;;;25.70;65.00;;;;;;6243892;23;20177;-86
2023/09/15 01:48:20;;;;;;;0.80;0.77;;;25.70;64.90;;;;;;6245308;23;20190;-83
2023/09/15 01:50:50;;;;;;;2.15;1.42;;;25.70;64.90;;;;;;6262557;23;20214;-84
2023/09/15 01:53:18;;;;;;;1.27;0.77;;;25.70;64.60;;;;;;6245394;23;20241;-83
2023/09/15 01:55:49;;;;;;;0.70;0.70;;;25.70;64.90;;;;;;6241104;23;20177;-84
2023/09/15 01:58:18;;;;;;;0.65;0.65;;;25.60;64.70;;;;;;6242338;23;20150;-85
2023/09/15 02:00:48;;;;;;;1.08;0.57;;;25.60;64.80;;;;;;6241461;23;20170;-82
2023/09/15 02:03:18;;;;;;;0.60;0.60;;;25.60;64.80;;;;;;6240536;23;20198;-83
2023/09/15 02:05:49;;;;;;;1.33;1.23;;;25.60;66.20;;;;;;6241246;23;20190;-85
2023/09/15 02:08:18;;;;;;;2.03;1.08;;;25.50;66.00;;;;;;6242623;23;20178;-84
2023/09/15 02:10:46;;;;;;;2.33;1.45;;;25.50;66.50;;;;;;6241378;23;20174;-85
2023/09/15 02:13:15;;;;;;;14.10;1.65;;;25.50;67.00;;;;;;6242267;23;20182;-84
2023/09/15 02:15:43;;;;;;;1.52;1.33;;;25.40;67.30;;;;;;6240838;23;20194;-84
2023/09/15 02:18:12;;;;;;;1.77;0.95;;;25.40;67.70;;;;;;6242031;23;20197;-86
2023/09/15 02:20:41;;;;;;;3.08;1.73;;;25.40;67.40;;;;;;6241544;23;20198;-85
2023/09/15 02:23:11;;;;;;;1.50;1.15;;;25.30;68.20;;;;;;6240874;23;20163;-84
2023/09/15 02:25:40;;;;;;;0.57;0.57;;;25.30;67.80;;;;;;6242336;23;20634;-85
2023/09/15 02:28:11;;;;;;;0.50;0.50;;;25.30;68.00;;;;;;6240867;23;20260;-84
2023/09/15 02:30:39;;;;;;;1.42;1.02;;;25.20;67.80;;;;;;6241690;23;20159;-84
2023/09/15 02:33:08;;;;;;;1.40;1.30;;;25.20;67.70;;;;;;6243059;23;20220;-85
2023/09/15 02:35:38;;;;;;;2.65;1.50;;;25.20;68.20;;;;;;6241184;23;20619;-83
2023/09/15 02:38:07;;;;;;;0.50;0.45;;;25.20;68.00;;;;;;6241018;23;20166;-83
2023/09/15 02:40:37;;;;;;;1.40;1.13;;;25.20;68.00;;;;;;6240924;23;20924;-83
2023/09/15 02:43:05;;;;;;;0.22;0.22;;;25.20;68.00;;;;;;6243738;23;20224;-84
2023/09/15 02:45:36;;;;;;;1.17;0.57;;;25.10;67.90;;;;;;6241052;23;20178;-85
2023/09/15 02:48:06;;;;;;;1.90;1.55;;;25.20;68.10;;;;;;6242228;23;20256;-83
2023/09/15 02:50:35;;;;;;;1.30;1.08;;;25.10;68.70;;;;;;6242191;23;20236;-84
2023/09/15 02:53:03;;;;;;;1.83;1.02;;;25.10;68.70;;;;;;6240801;23;20163;-85
2023/09/15 02:55:32;;;;;;;0.60;0.50;;;25.10;68.70;;;;;;6242305;23;20167;-84
2023/09/15 02:58:02;;;;;;;1.38;0.82;;;25.10;69.10;;;;;;6241612;23;20166;-83
2023/09/15 03:00:30;;;;;;;3.53;1.35;;;25.00;69.40;;;;;;6240328;23;20610;-84
2023/09/15 03:02:59;;;;;;;0.68;0.63;;;25.00;69.80;;;;;;6239101;23;20965;-82
2023/09/15 03:05:27;;;;;;;0.45;0.45;;;25.00;70.00;;;;;;6241797;23;20619;-85
2023/09/15 03:07:56;;;;;;;1.08;0.88;;;25.00;70.20;;;;;;6240732;23;20643;-85
2023/09/15 03:10:24;;;;;;;3.03;1.73;;;25.00;71.70;;;;;;6240717;23;20175;-85
2023/09/15 03:12:53;;;;;;;2.53;1.35;;;24.90;73.00;;;;;;6240648;23;20687;-85
2023/09/15 03:15:23;;;;;;;3.75;1.92;;;24.90;74.60;;;;;;6241889;23;20194;-84
2023/09/15 03:17:54;;;;;;;5.32;1.13;;;24.90;74.90;;;;;;6242747;23;20479;-85
2023/09/15 03:20:22;;;;;;;2.60;1.15;;;24.80;75.20;;;;;;6242331;23;20170;-84
2023/09/15 03:22:52;;;;;;;3.00;1.92;;;24.80;75.10;;;;;;6238839;23;20167;-85
2023/09/15 03:25:21;;;;;;;1.50;1.40;;;24.80;74.70;;;;;;6244554;23;20233;-84
2023/09/15 03:27:50;;;;;;;0.60;0.60;;;24.80;74.10;;;;;;6242230;23;20194;-83
2023/09/15 03:30:19;;;;;;;1.35;0.95;;;24.80;74.30;;;;;;6241609;23;20174;-85
2023/09/15 03:32:49;;;;;;;0.82;0.82;;;24.70;74.30;;;;;;6243536;23;20265;-82
2023/09/15 03:35:17;;;;;;;5.03;3.03;;;24.70;74.20;;;;;;6242380;23;20651;-83
2023/09/15 03:37:46;;;;;;;1.67;1.38;;;24.70;73.90;;;;;;6237627;23;20175;-83
2023/09/15 03:40:14;;;;;;;1.00;0.90;;;24.70;74.00;;;;;;6239366;23;20169;-83
2023/09/15 03:42:43;;;;;;;3.67;1.35;;;24.70;74.00;;;;;;6242184;23;20185;-83
2023/09/15 03:45:11;;;;;;;0.80;0.80;;;24.70;73.90;;;;;;6242663;23;20171;-84
2023/09/15 03:47:40;;;;;;;0.82;0.77;;;24.60;73.90;;;;;;6243604;23;20194;-84
2023/09/15 03:50:11;;;;;;;0.52;0.50;;;24.60;73.80;;;;;;6243508;23;20220;-83
2023/09/15 03:52:39;;;;;;;11.35;2.60;;;24.60;73.60;;;;;;6242969;23;20166;-85
2023/09/15 03:55:10;;;;;;;1.23;0.60;;;24.60;73.70;;;;;;6242357;23;20174;-84
2023/09/15 03:57:38;;;;;;;1.45;1.25;;;24.60;74.10;;;;;;6242965;23;20525;-84
2023/09/15 04:00:11;;;;;;;0.85;0.85;;;24.60;73.00;;;;;;6244337;23;20179;-85
2023/09/15 04:02:39;;;;;;;1.35;0.68;;;24.60;72.60;;;;;;6242027;23;20159;-84
2023/09/15 04:05:10;;;;;;;1.75;1.15;;;24.60;72.30;;;;;;6243596;23;20166;-83
2023/09/15 04:07:40;;;;;;;0.88;0.88;;;24.70;72.10;;;;;;6241575;23;20234;-83
2023/09/15 04:10:09;;;;;;;1.40;0.70;;;24.70;72.00;;;;;;6241006;23;20174;-85
2023/09/15 04:12:37;;;;;;;0.73;0.73;;;24.80;71.80;;;;;;6241084;23;20173;-86
2023/09/15 04:15:07;;;;;;;2.20;1.60;;;24.70;71.70;;;;;;6241892;23;20171;-83
2023/09/15 04:17:35;;;;;;;1.17;1.08;;;24.70;72.30;;;;;;6243355;23;20155;-85
2023/09/15 04:20:09;;;;;;;1.60;0.93;;;24.70;73.10;;;;;;6241710;23;20169;-85
2023/09/15 04:22:40;;;;;;;0.60;0.50;;;24.70;73.40;;;;;;6241301;23;20626;-85
2023/09/15 04:25:24;;;;;;;1.60;1.50;;;24.70;73.10;;;;;;6240832;23;20394;-84
2023/09/15 04:27:52;;;;;;;0.98;0.70;;;24.70;73.00;;;;;;6242887;23;20170;-83
2023/09/15 04:30:21;;;;;;;0.82;0.82;;;24.70;73.00;;;;;;6239133;23;20192;-85
2023/09/15 04:32:50;;;;;;;1.95;1.50;;;24.60;73.20;;;;;;6239570;23;20684;-83
2023/09/15 04:35:18;;;;;;;1.58;0.82;;;24.70;73.30;;;;;;6240443;23;20214;-82
2023/09/15 04:37:49;;;;;;;8.05;0.82;;;24.70;73.50;;;;;;6239332;23;20640;-82
2023/09/15 04:40:17;;;;;;;0.98;0.98;;;24.60;73.20;;;;;;6239856;23;20694;-82
2023/09/15 04:42:46;;;;;;;1.30;1.02;;;24.60;73.00;;;;;;6240281;23;20177;-82
2023/09/15 04:45:15;;;;;;;1.00;0.90;;;24.70;73.10;;;;;;6239370;23;20555;-82
2023/09/15 04:47:43;;;;;;;1.02;0.93;;;24.60;73.10;;;;;;6239346;23;20273;-82
2023/09/15 04:50:12;;;;;;;1.33;1.15;;;24.70;73.30;;;;;;6236649;23;20854;-83
2023/09/15 04:52:41;;;;;;;2.63;1.08;;;24.60;73.40;;;;;;6239613;23;20201;-83
2023/09/15 04:55:11;;;;;;;4.20;1.45;;;24.70;73.40;;;;;;6241766;23;20249;-85
2023/09/15 04:57:40;;;;;;;2.92;1.83;;;24.70;73.20;;;;;;6240200;23;20154;-85
2023/09/15 05:00:13;;;;;;;0.50;0.50;;;24.70;73.20;;;;;;6243068;23;20194;-84
2023/09/15 05:02:45;;;;;;;1.00;1.00;;;24.70;73.20;;;;;;6241997;23;20162;-85
2023/09/15 05:05:14;;;;;;;1.48;1.23;;;24.70;73.10;;;;;;6240608;23;20169;-84
2023/09/15 05:07:43;;;;;;;1.75;1.45;;;24.70;73.00;;;;;;6240962;23;20162;-84
2023/09/15 05:10:13;;;;;;;1.38;1.15;;;24.70;73.50;;;;;;6241035;23;20194;-83
2023/09/15 05:12:42;;;;;;;6.00;0.80;;;24.70;73.20;;;;;;6243199;23;20166;-85
2023/09/15 05:15:11;;;;;;;0.65;0.65;;;24.80;73.30;;;;;;6262441;23;20217;-83
2023/09/15 05:46:12;;;;;;;0.70;0.70;;;25.10;72.00;;;;;;6236736;22;20226;-82
2023/09/15 05:48:41;;;;;;;1.48;1.05;;;25.10;71.90;;;;;;6239229;23;21034;-84
2023/09/15 05:51:09;;;;;;;1.30;0.70;;;25.10;71.80;;;;;;6238163;23;20202;-83
2023/09/15 05:53:38;;;;;;;0.70;0.57;;;25.20;71.80;;;;;;6241886;23;20171;-83
2023/09/15 05:56:07;;;;;;;1.08;0.80;;;25.20;71.70;;;;;;6240209;23;20490;-85
2023/09/15 05:58:35;;;;;;;0.60;0.55;;;25.20;71.70;;;;;;6241922;23;20170;-84
2023/09/15 06:27:41;;;;;;;1.45;0.80;;;25.40;71.00;;;;;;6224766;22;20213;-82
2023/09/15 06:30:11;;;;;;;0.50;0.50;;;25.40;71.10;;;;;;6241327;23;20690;-84
2023/09/15 06:32:40;;;;;;;2.33;1.38;;;25.40;71.50;;;;;;6216710;23;20167;-86
2023/09/15 06:35:12;;;;;;;4.63;0.70;;;25.40;71.60;;;;;;6239501;23;20402;-86
2023/09/15 06:37:42;;;;;;;1.85;0.85;;;25.40;71.70;;;;;;6242858;23;20237;-86
2023/09/15 06:40:12;;;;;;;0.40;0.40;;;25.40;71.70;;;;;;6243272;23;20180;-85
2023/09/15 06:42:42;;;;;;;1.23;0.77;;;25.40;71.60;;;;;;6238161;23;20155;-86
2023/09/15 06:45:11;;;;;;;1.17;0.85;;;25.40;71.60;;;;;;6215023;23;20162;-84
2023/09/15 06:47:40;;;;;;;1.27;0.82;;;25.40;71.40;;;;;;6243769;23;20171;-88
2023/09/15 06:50:09;;;;;;;1.20;0.50;;;25.40;71.40;;;;;;6242813;23;20226;-85
2023/09/15 06:52:39;;;;;;;0.60;0.57;;;25.40;71.30;;;;;;6236735;23;20167;-84
2023/09/15 06:55:08;;;;;;;1.30;1.05;;;25.40;71.30;;;;;;6237245;23;20182;-85
2023/09/15 06:57:36;;;;;;;0.55;0.55;;;25.50;71.30;;;;;;6242359;23;20170;-84
2023/09/15 07:00:09;;;;;;;0.63;0.63;;;25.50;71.20;;;;;;6241264;23;20198;-86
2023/09/15 07:02:37;;;;;;;0.90;0.90;;;25.50;71.00;;;;;;6245176;23;20162;-85
2023/09/15 07:05:06;;;;;;;1.05;0.85;;;25.50;70.80;;;;;;6245357;23;20174;-85
2023/09/15 07:07:35;;;;;;;4.57;1.02;;;25.50;70.50;;;;;;6246756;23;20233;-85
2023/09/15 07:10:04;;;;;;;12.52;0.93;;;25.50;70.50;;;;;;6243891;23;20225;-85
2023/09/15 07:12:33;;;;;;;0.65;0.65;;;25.60;70.50;;;;;;6246354;23;20163;-84
2023/09/15 07:15:03;;;;;;;1.55;1.10;;;25.60;70.40;;;;;;6244442;23;20166;-85
2023/09/15 07:17:34;;;;;;;2.90;1.30;;;25.60;70.10;;;;;;6246968;23;20158;-84
2023/09/15 07:20:02;;;;;;;1.10;0.75;;;25.60;70.00;;;;;;6243266;23;20174;-86
2023/09/15 07:22:31;;;;;;;2.08;1.45;;;25.70;70.00;;;;;;6244246;23;20171;-85
2023/09/15 07:24:59;;;;;;;1.70;1.50;;;25.60;69.70;;;;;;6245109;23;20577;-83
2023/09/15 07:27:28;;;;;;;1.23;0.77;;;25.70;69.70;;;;;;6246667;23;20170;-84
2023/09/15 07:29:57;;;;;;;0.57;0.57;;;25.80;69.90;;;;;;6243658;23;20206;-83
2023/09/15 07:32:26;;;;;;;0.60;0.60;;;25.80;69.80;;;;;;6245836;23;20177;-84
2023/09/15 07:34:56;;;;;;;0.90;0.90;;;25.90;69.80;;;;;;6244861;23;20174;-84
2023/09/15 07:37:26;;;;;;;0.68;0.50;;;26.00;69.80;;;;;;6245191;23;20158;-84
2023/09/15 07:39:55;;;;;;;0.52;0.52;;;26.00;69.80;;;;;;6244339;23;20158;-84
2023/09/15 07:42:23;;;;;;;0.60;0.57;;;26.10;69.80;;;;;;6243359;23;20170;-84
2023/09/15 07:44:52;;;;;;;1.13;0.88;;;26.10;69.60;;;;;;6244634;23;20173;-85
2023/09/15 07:47:20;;;;;;;1.80;1.42;;;26.20;69.40;;;;;;6245338;23;20166;-85
2023/09/15 07:49:49;;;;;;;1.95;1.00;;;26.20;69.20;;;;;;6243603;23;20190;-84
2023/09/15 07:52:19;;;;;;;0.75;0.68;;;26.30;69.10;;;;;;6244935;23;20189;-84
2023/09/15 07:54:47;;;;;;;1.65;0.77;;;26.30;68.90;;;;;;6244747;23;20182;-85
2023/09/15 07:57:15;;;;;;;5.57;0.90;;;26.30;68.70;;;;;;6244514;23;20616;-85
2023/09/15 07:59:44;;;;;;;1.58;0.93;;;26.40;68.70;;;;;;6243405;23;20182;-86
2023/09/15 08:02:14;;;;;;;1.35;1.10;;;26.40;68.60;;;;;;6244069;23;20253;-82
2023/09/15 08:04:43;;;;;;;1.83;1.10;;;26.50;68.70;;;;;;6242536;23;20255;-83
2023/09/15 08:07:11;;;;;;;0.98;0.75;;;26.50;68.60;;;;;;6244092;23;20624;-84
2023/09/15 08:09:41;;;;;;;0.68;0.68;;;26.60;68.60;;;;;;6241264;23;20270;-85
2023/09/15 08:12:10;;;;;;;0.73;0.52;;;26.70;68.60;;;;;;6245368;23;20169;-85
2023/09/15 08:14:40;;;;;;;6.57;1.67;;;26.70;68.20;;;;;;6242843;23;20170;-84
2023/09/15 08:17:09;;;;;;;1.15;0.80;;;26.70;68.20;;;;;;6245412;23;20178;-85
2023/09/15 08:19:57;;;;;;;1.05;0.93;;;26.80;68.10;;;;;;6242224;23;20197;-84
2023/09/15 08:22:27;;;;;;;1.23;1.13;;;26.80;68.10;;;;;;6245685;23;20166;-83
2023/09/15 08:24:57;;;;;;;1.45;0.70;;;26.80;68.00;;;;;;6243375;23;20596;-85
2023/09/15 08:27:28;;;;;;;0.63;0.50;;;26.80;67.80;;;;;;6244465;23;20170;-86
2023/09/15 08:29:57;;;;;;;4.57;0.95;;;26.80;67.70;;;;;;6243798;23;20205;-84
2023/09/15 08:32:25;;;;;;;2.03;1.45;;;26.80;67.70;;;;;;6245772;23;20719;-86
2023/09/15 08:34:54;;;;;;;0.95;0.68;;;26.80;67.50;;;;;;6244926;23;20170;-84
2023/09/15 08:37:23;;;;;;;1.33;1.17;;;26.80;67.40;;;;;;6245558;23;20167;-85
2023/09/15 08:39:52;;;;;;;0.68;0.43;;;26.90;67.50;;;;;;6240781;23;20224;-84
2023/09/15 08:42:26;;;;;;;0.82;0.77;;;27.00;67.40;;;;;;6245081;23;20249;-86
2023/09/15 08:44:56;;;;;;;2.05;1.70;;;27.00;67.20;;;;;;6242430;23;20186;-85
2023/09/15 08:47:27;;;;;;;0.93;0.93;;;27.10;67.10;;;;;;6244734;23;20175;-86
2023/09/15 08:49:57;;;;;;;1.70;0.98;;;27.20;67.00;;;;;;6243470;23;20513;-85
2023/09/15 08:52:25;;;;;;;2.50;1.77;;;27.20;67.00;;;;;;6245088;23;20166;-86
2023/09/15 08:54:55;;;;;;;7.63;2.15;;;27.30;66.90;;;;;;6244454;23;20209;-86
2023/09/15 08:57:27;;;;;;;1.85;1.45;;;27.30;66.60;;;;;;6244394;23;20198;-86
2023/09/15 08:59:56;;;;;;;2.28;0.77;;;27.40;66.50;;;;;;6241747;23;20166;-84
2023/09/15 09:02:26;;;;;;;1.50;1.20;;;27.40;66.30;;;;;;6244719;23;20166;-84
2023/09/15 09:04:55;;;;;;;1.85;1.48;;;27.50;66.10;;;;;;6238057;23;20155;-81
2023/09/15 09:07:24;;;;;;;1.02;0.93;;;27.50;66.30;;;;;;6242842;23;20172;-82
2023/09/15 09:09:54;;;;;;;0.82;0.77;;;27.60;66.20;;;;;;6240955;23;20170;-83
2023/09/15 09:12:24;;;;;;;1.00;0.95;;;27.60;65.90;;;;;;6242840;23;20228;-84
2023/09/15 09:14:56;;;;;;;1.08;0.98;;;27.70;65.80;;;;;;6241303;23;20167;-83
2023/09/15 09:17:25;;;;;;;0.88;0.88;;;27.70;65.70;;;;;;6243094;23;20155;-83
2023/09/15 09:19:53;;;;;;;2.08;1.30;;;27.80;65.70;;;;;;6240097;23;20697;-80
2023/09/15 09:22:22;;;;;;;0.90;0.88;;;27.80;65.40;;;;;;6236450;23;20173;-83
2023/09/15 09:24:55;;;;;;;0.77;0.77;;;27.90;65.30;;;;;;6239007;23;20231;-83
2023/09/15 09:27:34;;;;;;;0.50;0.47;;;27.90;65.30;;;;;;6243542;23;20208;-83
2023/09/15 09:30:04;;;;;;;1.27;0.95;;;27.90;65.30;;;;;;6240808;23;20197;-82
2023/09/15 09:32:36;;;;;;;2.20;1.20;;;27.90;64.70;;;;;;6240506;23;20170;-83
2023/09/15 09:35:05;;;;;;;1.55;0.98;;;28.00;64.80;;;;;;6240124;23;20158;-83
2023/09/15 09:37:34;;;;;;;1.30;1.20;;;28.00;64.90;;;;;;6244219;23;20169;-83
2023/09/15 09:40:03;;;;;;;1.10;0.63;;;28.10;64.80;;;;;;6240657;23;20249;-83
2023/09/15 09:42:34;;;;;;;2.92;1.45;;;28.20;64.70;;;;;;6242548;23;20646;-84
2023/09/15 09:45:04;;;;;;;8.27;1.70;;;28.20;64.60;;;;;;6240622;23;20205;-84
2023/09/15 09:47:33;;;;;;;2.00;1.23;;;28.20;64.60;;;;;;6242419;23;20170;-84
2023/09/15 09:50:06;;;;;;;0.52;0.52;;;28.20;64.30;;;;;;6240194;23;20173;-83
2023/09/15 09:52:35;;;;;;;2.10;1.90;;;28.30;64.20;;;;;;6244038;23;20234;-84
2023/09/15 09:55:06;;;;;;;1.65;1.13;;;28.30;64.10;;;;;;6242381;23;20624;-83
2023/09/15 09:57:37;;;;;;;2.03;1.00;;;28.30;64.10;;;;;;6241273;23;20166;-81
2023/09/15 10:00:10;;;;;;;2.97;1.15;;;28.40;63.90;;;;;;6240575;23;20181;-84
2023/09/15 10:02:40;;;;;;;1.13;0.80;;;28.50;64.10;;;;;;6243457;23;20596;-83
2023/09/15 10:05:09;;;;;;;3.85;1.50;;;28.50;63.90;;;;;;6241929;23;20167;-81
2023/09/15 10:07:38;;;;;;;1.20;1.02;;;28.50;63.80;;;;;;6238472;23;20216;-81
2023/09/15 10:10:08;;;;;;;2.13;1.42;;;28.60;63.80;;;;;;6239798;23;20170;-80
2023/09/15 10:12:39;;;;;;;1.55;1.45;;;28.60;63.60;;;;;;6243633;23;20575;-82
2023/09/15 10:15:08;;;;;;;1.33;1.13;;;28.60;63.50;;;;;;6241855;23;20162;-83
2023/09/15 10:17:38;;;;;;;1.58;1.27;;;28.70;63.40;;;;;;6244191;23;20232;-84
2023/09/15 10:20:09;;;;;;;1.88;1.20;;;28.70;63.20;;;;;;6240820;23;20171;-81
2023/09/15 10:22:38;;;;;;;3.85;1.58;;;28.70;63.40;;;;;;6244264;23;20163;-82
2023/09/15 10:25:08;;;;;;;3.40;2.45;;;28.80;63.20;;;;;;6240218;23;20262;-81
2023/09/15 10:27:38;;;;;;;3.60;1.70;;;28.80;63.20;;;;;;6243572;23;20569;-87
2023/09/15 10:30:08;;;;;;;2.42;1.42;;;28.90;63.30;;;;;;6244236;23;20201;-83
2023/09/15 10:32:39;;;;;;;4.18;1.58;;;28.90;62.70;;;;;;6240248;23;20251;-81
2023/09/15 10:35:09;;;;;;;1.35;0.70;;;28.90;62.60;;;;;;6244139;23;20220;-91
2023/09/15 10:37:41;;;;;;;2.15;1.50;;;29.00;62.70;;;;;;6242885;23;20592;-82
2023/09/15 10:40:12;;;;;;;2.13;1.65;;;29.00;62.40;;;;;;6245123;23;20162;-84
2023/09/15 10:42:51;;;;;;;1.95;1.48;;;29.10;62.30;;;;;;6244020;23;20216;-81
2023/09/15 10:45:20;;;;;;;1.35;1.25;;;29.10;62.20;;;;;;6245337;23;20158;-82
2023/09/15 10:48:00;;;;;;;0.75;0.60;;;29.20;62.00;;;;;;6243578;23;20205;-81
2023/09/15 10:50:33;;;;;;;1.25;1.10;;;29.20;62.00;;;;;;6241191;23;20203;-81
2023/09/15 10:53:09;;;;;;;4.43;1.42;;;29.20;61.30;;;;;;6236844;23;20728;-81
2023/09/15 10:55:40;;;;;;;1.55;0.95;;;29.30;61.20;;;;;;6210282;23;20534;-86
2023/09/15 10:58:11;;;;;;;3.35;1.70;;;29.30;61.50;;;;;;6240183;23;20167;-82
2023/09/15 11:00:41;;;;;;;2.92;1.38;;;29.40;61.40;;;;;;6215610;23;20159;-83
2023/09/15 11:03:10;;;;;;;2.13;1.35;;;29.40;61.40;;;;;;6242611;23;20167;-83
2023/09/15 11:05:40;;;;;;;2.92;1.65;;;29.50;61.30;;;;;;6242447;23;20171;-82
2023/09/15 11:08:10;;;;;;;1.17;0.88;;;29.50;61.10;;;;;;6242144;23;20960;-82
2023/09/15 11:10:40;;;;;;;2.22;1.48;;;29.60;61.20;;;;;;6240916;23;20158;-82
2023/09/15 11:13:10;;;;;;;1.92;1.40;;;29.60;60.80;;;;;;6241414;23;20274;-84
2023/09/15 11:15:38;;;;;;;4.05;0.82;;;29.60;60.50;;;;;;6245364;23;20166;-85
2023/09/15 11:18:12;;;;;;;2.38;1.33;;;29.70;60.50;;;;;;6243819;23;20174;-89
2023/09/15 11:20:41;;;;;;;1.92;1.25;;;29.70;60.20;;;;;;6244797;23;20205;-85
2023/09/15 11:23:09;;;;;;;1.15;0.60;;;29.70;60.40;;;;;;6241470;23;20503;-83
2023/09/15 11:25:38;;;;;;;1.20;1.10;;;29.80;60.30;;;;;;6244002;23;20193;-87
2023/09/15 11:28:13;;;;;;;1.55;1.25;;;29.80;60.40;;;;;;6240372;23;20664;-83
2023/09/15 11:30:42;;;;;;;0.70;0.70;;;29.80;60.40;;;;;;6243885;23;20213;-85
2023/09/15 11:33:12;;;;;;;2.03;1.13;;;29.90;60.20;;;;;;6244838;23;20202;-83
2023/09/15 11:35:41;;;;;;;0.73;0.70;;;29.90;59.60;;;;;;6240956;23;20185;-83
2023/09/15 11:38:10;;;;;;;1.30;1.15;;;29.90;59.80;;;;;;6242731;23;20196;-83
2023/09/15 11:40:45;;;;;;;3.78;1.35;;;30.00;59.80;;;;;;6241166;23;20171;-83
2023/09/15 11:43:15;;;;;;;1.83;1.65;;;30.00;59.20;;;;;;6241232;23;20232;-83
2023/09/15 11:45:44;;;;;;;1.00;0.95;;;30.00;59.00;;;;;;6238941;23;20175;-82
2023/09/15 11:48:14;;;;;;;3.13;1.25;;;30.00;59.30;;;;;;6238226;23;20170;-83
2023/09/15 11:50:43;;;;;;;2.72;2.10;;;30.00;59.30;;;;;;6238714;23;20179;-82
2023/09/15 11:53:11;;;;;;;9.93;2.10;;;30.00;59.00;;;;;;6239023;23;20194;-83
2023/09/15 11:55:40;;;;;;;2.25;1.45;;;30.10;59.20;;;;;;6239905;23;20682;-85
2023/09/15 11:58:08;;;;;;;12.68;2.45;;;30.10;59.00;;;;;;6241312;23;20618;-83
2023/09/15 12:00:39;;;;;;;2.83;1.00;;;30.20;58.90;;;;;;6239854;23;20252;-81
2023/09/15 12:03:07;;;;;;;2.45;1.10;;;30.20;58.90;;;;;;6243203;23;20365;-83
2023/09/15 12:05:36;;;;;;;2.00;0.90;;;30.20;58.80;;;;;;6240878;23;20171;-83
2023/09/15 12:08:05;;;;;;;0.75;0.73;;;30.20;58.90;;;;;;6242705;23;20620;-82
2023/09/15 12:10:34;;;;;;;3.40;1.05;;;30.30;59.00;;;;;;6240659;23;20869;-84
2023/09/15 12:13:03;;;;;;;2.28;1.27;;;30.30;58.80;;;;;;6240301;23;20245;-84
2023/09/15 12:15:33;;;;;;;0.80;0.75;;;30.40;58.90;;;;;;6240951;23;20174;-83
2023/09/15 12:18:05;;;;;;;2.47;1.10;;;30.50;58.80;;;;;;6240780;23;20162;-82
2023/09/15 12:20:36;;;;;;;1.40;1.05;;;30.50;58.50;;;;;;6242041;23;20687;-81
2023/09/15 12:23:11;;;;;;;1.20;0.98;;;30.60;58.50;;;;;;6239702;23;20967;-80
2023/09/15 12:25:40;;;;;;;3.53;1.58;;;30.60;58.40;;;;;;6240909;23;20176;-79
2023/09/15 12:28:09;;;;;;;1.50;1.23;;;30.70;58.90;;;;;;6241237;23;20248;-80
2023/09/15 12:30:43;;;;;;;0.73;0.73;;;30.70;57.90;;;;;;6242912;23;20166;-80
2023/09/15 12:33:13;;;;;;;0.90;0.90;;;30.70;57.90;;;;;;6241094;23;20188;-79
2023/09/15 12:35:41;;;;;;;0.80;0.80;;;30.70;57.70;;;;;;6240555;23;20167;-80
2023/09/15 12:38:11;;;;;;;0.73;0.68;;;30.70;57.80;;;;;;6242704;23;20170;-79
2023/09/15 12:40:40;;;;;;;2.70;1.02;;;30.60;57.70;;;;;;6239464;23;20161;-81
2023/09/15 12:43:08;;;;;;;0.95;0.57;;;30.60;57.80;;;;;;6242295;23;20175;-80
2023/09/15 12:45:37;;;;;;;1.52;0.50;;;30.60;57.90;;;;;;6239959;23;20167;-80
2023/09/15 12:48:05;;;;;;;2.15;1.38;;;30.50;57.80;;;;;;6239760;23;20192;-80
2023/09/15 12:50:36;;;;;;;1.17;0.95;;;30.50;57.80;;;;;;6241530;23;20236;-79
2023/09/15 12:53:04;;;;;;;1.00;0.50;;;30.50;58.00;;;;;;6243204;23;20280;-82
2023/09/15 12:55:33;;;;;;;1.65;1.42;;;30.50;58.70;;;;;;6243568;23;20170;-80
2023/09/15 12:58:01;;;;;;;0.77;0.75;;;30.40;58.10;;;;;;6241801;23;20176;-81
2023/09/15 13:00:30;;;;;;;0.55;0.55;;;30.40;58.10;;;;;;6243614;23;20616;-79
2023/09/15 13:02:58;;;;;;;1.08;0.98;;;30.40;58.10;;;;;;6241862;23;20244;-80
2023/09/15 13:05:29;;;;;;;0.45;0.45;;;30.50;58.30;;;;;;6244482;23;20490;-85
2023/09/15 13:07:59;;;;;;;10.50;1.48;;;30.50;58.10;;;;;;6241939;23;20620;-82
2023/09/15 13:10:28;;;;;;;4.80;1.58;;;30.50;57.90;;;;;;6244239;23;20169;-82
2023/09/15 13:12:56;;;;;;;2.30;1.00;;;30.50;58.00;;;;;;6240720;23;20194;-80
2023/09/15 13:15:25;;;;;;;1.13;1.02;;;30.60;57.80;;;;;;6243066;23;20167;-80
2023/09/15 13:17:53;;;;;;;0.85;0.80;;;30.60;57.90;;;;;;6244873;23;20166;-81
2023/09/15 13:20:23;;;;;;;1.45;1.08;;;30.70;58.00;;;;;;6244040;23;20173;-79
2023/09/15 13:22:51;;;;;;;1.10;0.75;;;30.60;58.10;;;;;;6243197;23;20167;-80
2023/09/15 13:25:21;;;;;;;0.85;0.85;;;30.70;58.10;;;;;;6244008;23;20638;-80
2023/09/15 13:27:53;;;;;;;2.47;1.27;;;30.70;58.10;;;;;;6243275;23;20158;-80
2023/09/15 13:30:21;;;;;;;4.20;1.88;;;30.70;57.60;;;;;;6243473;23;20675;-79
2023/09/15 13:32:50;;;;;;;4.32;1.50;;;30.70;57.60;;;;;;6242683;23;20193;-80
2023/09/15 13:35:19;;;;;;;1.27;1.00;;;30.70;57.80;;;;;;6242803;23;20248;-79
2023/09/15 13:37:48;;;;;;;0.75;0.75;;;30.80;58.30;;;;;;6242665;23;20166;-80
2023/09/15 13:40:17;;;;;;;1.33;0.75;;;30.80;57.70;;;;;;6244061;23;20166;-79
2023/09/15 13:42:47;;;;;;;0.77;0.73;;;30.80;57.70;;;;;;6243325;23;20224;-80
2023/09/15 13:45:16;;;;;;;0.50;0.50;;;30.90;57.70;;;;;;6242896;23;20205;-81
2023/09/15 13:47:44;;;;;;;1.67;1.20;;;31.10;57.60;;;;;;6241861;23;20170;-79
2023/09/15 13:50:13;;;;;;;2.75;1.27;;;31.10;57.30;;;;;;6242731;23;20162;-80
2023/09/15 13:52:42;;;;;;;0.90;0.90;;;31.20;57.00;;;;;;6241769;23;20226;-80
2023/09/15 13:55:11;;;;;;;2.10;1.50;;;31.10;57.20;;;;;;6241580;23;20245;-80